Time;durP1;ratioP1;P1;durP2;ratioP2;P2;SDS_P1;SDS_P2;PMS_P1;PMS_P2;Temp;Humidity;BMP_temperature;BMP_pressure;BME280_temperature;BME280_humidity;BME280_pressure;Samples;Min_cycle;Max_cycle;Signal;HPM_P1;HPM_P2
2024/03/23 00:01:32;;;;;;;13.98;6.60;;;16.20;85.10;;;;;;5099194;28;20039;-73
2024/03/23 00:03:59;;;;;;;12.63;7.43;;;16.20;85.10;;;;;;5099109;28;20119;-73
2024/03/23 00:06:25;;;;;;;18.25;6.88;;;16.30;85.10;;;;;;5080914;28;20036;-72
2024/03/23 00:08:52;;;;;;;20.35;8.00;;;16.30;85.00;;;;;;5099264;28;20042;-73
2024/03/23 00:11:20;;;;;;;15.30;6.68;;;16.30;84.80;;;;;;5080737;28;20451;-73
2024/03/23 00:13:47;;;;;;;13.75;6.82;;;16.30;84.80;;;;;;5099522;28;20040;-72
2024/03/23 00:16:13;;;;;;;15.82;7.32;;;16.30;84.50;;;;;;5098896;28;20125;-72
2024/03/23 00:18:40;;;;;;;13.48;6.75;;;16.40;84.80;;;;;;5098590;28;20403;-72
2024/03/23 00:21:06;;;;;;;16.23;7.82;;;16.40;84.60;;;;;;5098930;28;20499;-72
2024/03/23 00:23:33;;;;;;;14.38;7.97;;;16.40;84.60;;;;;;5099254;28;20055;-72
2024/03/23 00:25:59;;;;;;;13.93;7.47;;;16.30;84.50;;;;;;5099020;28;20031;-72
2024/03/23 00:28:26;;;;;;;16.00;7.40;;;16.40;84.50;;;;;;5099615;28;20046;-71
2024/03/23 00:30:52;;;;;;;14.65;7.63;;;16.40;84.50;;;;;;5099183;28;20050;-73
2024/03/23 00:33:19;;;;;;;13.25;7.43;;;16.40;84.60;;;;;;5098810;28;20024;-72
2024/03/23 00:35:46;;;;;;;11.75;7.00;;;16.40;84.70;;;;;;5098941;28;20043;-73
2024/03/23 00:38:12;;;;;;;10.75;8.35;;;16.40;84.70;;;;;;5080129;28;20491;-72
2024/03/23 00:40:39;;;;;;;14.50;8.85;;;16.40;84.70;;;;;;5098363;28;20032;-72
2024/03/23 00:43:05;;;;;;;11.75;8.15;;;16.40;84.70;;;;;;5098477;28;20062;-72
2024/03/23 00:45:32;;;;;;;12.23;7.95;;;16.40;84.60;;;;;;5098406;28;20042;-72
2024/03/23 00:47:58;;;;;;;13.23;7.93;;;16.40;85.00;;;;;;5098289;28;20028;-72
2024/03/23 00:50:25;;;;;;;12.20;8.20;;;16.40;84.90;;;;;;5098571;28;20036;-72
2024/03/23 00:52:51;;;;;;;10.60;8.20;;;16.40;84.90;;;;;;5098588;28;20440;-72
2024/03/23 00:55:17;;;;;;;15.40;8.82;;;16.40;85.00;;;;;;5080261;28;20042;-72
2024/03/23 00:57:42;;;;;;;14.68;8.48;;;16.30;84.90;;;;;;5098333;28;20044;-71
2024/03/23 01:00:10;;;;;;;13.82;9.02;;;16.40;85.00;;;;;;5098452;28;20054;-71
2024/03/23 01:02:36;;;;;;;14.02;8.95;;;16.40;85.00;;;;;;5098042;28;20048;-72
2024/03/23 01:05:02;;;;;;;18.25;9.90;;;16.40;85.00;;;;;;5098400;28;20028;-72
2024/03/23 01:07:28;;;;;;;15.90;10.00;;;16.30;85.20;;;;;;5080413;28;20036;-72
2024/03/23 01:09:53;;;;;;;17.25;9.93;;;16.30;85.20;;;;;;5098389;28;20036;-72
2024/03/23 01:12:19;;;;;;;15.52;9.90;;;16.20;85.50;;;;;;5094808;28;20043;-71
2024/03/23 01:14:45;;;;;;;14.45;9.57;;;16.20;85.50;;;;;;5091848;28;20032;-72
2024/03/23 01:17:10;;;;;;;20.85;10.27;;;16.20;85.50;;;;;;5094930;28;20044;-72
2024/03/23 01:19:36;;;;;;;18.52;11.70;;;16.20;85.60;;;;;;5095164;28;20503;-72
2024/03/23 01:22:02;;;;;;;17.15;11.20;;;16.20;85.50;;;;;;5095104;28;20105;-71
2024/03/23 01:24:27;;;;;;;16.45;10.98;;;16.10;85.70;;;;;;5095090;28;20032;-72
2024/03/23 01:26:53;;;;;;;17.67;11.82;;;16.10;86.00;;;;;;5094574;28;20090;-72
2024/03/23 01:29:19;;;;;;;15.77;10.73;;;16.10;85.90;;;;;;5094835;28;20028;-71
2024/03/23 01:31:45;;;;;;;17.88;10.15;;;16.10;86.10;;;;;;5094815;28;20446;-72
2024/03/23 01:34:11;;;;;;;17.52;11.65;;;16.10;86.20;;;;;;5094773;28;20023;-71
2024/03/23 01:36:37;;;;;;;20.58;11.15;;;16.00;86.20;;;;;;5094464;28;20539;-71
2024/03/23 01:39:02;;;;;;;16.88;11.80;;;15.90;86.30;;;;;;5076394;28;20093;-72
2024/03/23 01:41:28;;;;;;;21.25;12.23;;;15.80;86.60;;;;;;5094881;28;20036;-71
2024/03/23 01:43:56;;;;;;;20.67;13.23;;;15.80;86.70;;;;;;5094781;28;20394;-71
2024/03/23 01:46:22;;;;;;;26.00;12.60;;;15.70;86.80;;;;;;5094572;28;20036;-73
2024/03/23 01:48:49;;;;;;;19.13;13.18;;;15.70;86.80;;;;;;5076484;28;20036;-72
2024/03/23 01:51:15;;;;;;;23.13;13.40;;;15.60;87.10;;;;;;5094394;28;20032;-72
2024/03/23 01:53:41;;;;;;;18.27;13.05;;;15.60;87.10;;;;;;5076140;28;20032;-70
2024/03/23 01:56:07;;;;;;;24.60;14.10;;;15.60;86.80;;;;;;5076219;28;20047;-71
2024/03/23 01:58:33;;;;;;;18.98;13.15;;;15.60;87.00;;;;;;5076305;28;20438;-72
2024/03/23 02:00:58;;;;;;;19.65;13.05;;;15.60;86.90;;;;;;5095582;28;20031;-71
2024/03/23 02:03:25;;;;;;;22.45;14.02;;;15.60;87.10;;;;;;5094718;28;20120;-71
2024/03/23 02:05:52;;;;;;;21.42;14.18;;;15.60;86.90;;;;;;5094110;28;20024;-71
2024/03/23 02:08:21;;;;;;;24.38;14.40;;;15.50;87.00;;;;;;5094911;28;20036;-70
2024/03/23 02:10:47;;;;;;;23.02;14.82;;;15.50;87.30;;;;;;5093988;28;20039;-71
2024/03/23 02:13:14;;;;;;;25.42;14.15;;;15.40;87.20;;;;;;5093819;28;20024;-70
2024/03/23 02:15:40;;;;;;;20.05;14.25;;;15.40;87.30;;;;;;5094113;28;20064;-72
2024/03/23 02:18:08;;;;;;;20.67;15.02;;;15.30;87.70;;;;;;5093969;28;20508;-71
2024/03/23 02:20:34;;;;;;;22.00;14.30;;;15.40;87.30;;;;;;5093667;28;20036;-72
2024/03/23 02:23:00;;;;;;;24.83;14.90;;;15.40;87.20;;;;;;5093656;28;20028;-70
2024/03/23 02:25:26;;;;;;;21.25;14.45;;;15.50;87.30;;;;;;5093812;28;20062;-70
2024/03/23 02:27:54;;;;;;;21.88;14.52;;;15.50;87.10;;;;;;5093854;28;20073;-70
2024/03/23 02:30:20;;;;;;;20.67;14.15;;;15.50;87.10;;;;;;5093761;28;20047;-71
2024/03/23 02:32:45;;;;;;;25.15;14.32;;;15.50;87.00;;;;;;5093387;28;20040;-71
2024/03/23 02:35:11;;;;;;;22.45;14.75;;;15.50;87.00;;;;;;5093760;28;20395;-72
2024/03/23 02:37:37;;;;;;;23.25;14.68;;;15.50;86.80;;;;;;5093538;28;20420;-70
2024/03/23 02:40:03;;;;;;;22.42;14.48;;;15.50;86.90;;;;;;5093841;28;20043;-70
2024/03/23 02:42:29;;;;;;;24.85;15.35;;;15.50;86.80;;;;;;5075157;28;20058;-71
2024/03/23 02:44:54;;;;;;;20.40;15.55;;;15.50;86.90;;;;;;5093390;28;20107;-72
2024/03/23 02:47:20;;;;;;;21.38;15.20;;;15.40;87.10;;;;;;5093227;28;20032;-72
2024/03/23 02:49:46;;;;;;;21.92;15.10;;;15.30;87.10;;;;;;5093251;28;20479;-71
2024/03/23 02:52:11;;;;;;;20.35;14.48;;;15.30;87.40;;;;;;5093334;28;20024;-71
2024/03/23 02:54:37;;;;;;;20.73;15.00;;;15.20;87.40;;;;;;5093324;28;20098;-71
2024/03/23 02:57:03;;;;;;;22.50;15.00;;;15.20;87.60;;;;;;5092838;28;20075;-70
2024/03/23 02:59:28;;;;;;;19.90;14.05;;;15.10;87.70;;;;;;5093238;28;20028;-71
2024/03/23 03:01:54;;;;;;;20.65;15.10;;;15.20;87.80;;;;;;5092891;28;20033;-71
2024/03/23 03:04:20;;;;;;;25.05;16.20;;;15.20;87.70;;;;;;5092827;28;20400;-70
2024/03/23 03:06:49;;;;;;;22.30;14.80;;;15.10;87.70;;;;;;5092925;28;20047;-72
2024/03/23 03:09:15;;;;;;;22.58;16.40;;;15.10;87.90;;;;;;5092971;28;20066;-71
2024/03/23 03:11:41;;;;;;;24.08;15.73;;;15.10;87.90;;;;;;5092769;28;20048;-71
2024/03/23 03:14:07;;;;;;;22.23;15.25;;;15.10;87.90;;;;;;5074612;28;20031;-73
2024/03/23 03:16:33;;;;;;;19.42;14.32;;;15.00;87.80;;;;;;5093229;28;20036;-72
2024/03/23 03:18:59;;;;;;;21.75;14.25;;;14.90;87.90;;;;;;5094162;28;20040;-71
2024/03/23 03:21:25;;;;;;;21.60;14.30;;;14.90;87.90;;;;;;5092816;28;20032;-71
2024/03/23 03:23:50;;;;;;;20.80;14.15;;;14.90;88.10;;;;;;5092804;28;20036;-72
2024/03/23 03:26:19;;;;;;;21.70;13.98;;;14.90;88.00;;;;;;5092671;28;20109;-72
2024/03/23 03:28:48;;;;;;;19.13;13.82;;;14.80;87.90;;;;;;5092658;28;20055;-72
2024/03/23 03:31:15;;;;;;;19.38;14.13;;;14.90;88.10;;;;;;5092991;28;20024;-71
2024/03/23 03:33:40;;;;;;;21.98;13.88;;;15.00;88.10;;;;;;5074861;28;20086;-72
2024/03/23 03:36:06;;;;;;;22.52;14.65;;;15.10;88.00;;;;;;5093516;28;20028;-71
2024/03/23 03:38:32;;;;;;;20.85;14.63;;;15.20;87.80;;;;;;5092738;28;20154;-72
2024/03/23 03:40:58;;;;;;;20.48;15.32;;;15.20;87.60;;;;;;5092427;28;20107;-71
2024/03/23 03:43:24;;;;;;;23.65;15.95;;;15.20;88.20;;;;;;5092621;28;20117;-72
2024/03/23 03:45:57;;;;;;;20.90;14.48;;;15.10;87.40;;;;;;5092423;28;20594;-70
2024/03/23 03:48:23;;;;;;;19.40;14.73;;;15.00;87.70;;;;;;5092490;28;20430;-71
2024/03/23 03:50:49;;;;;;;22.80;15.45;;;14.90;87.90;;;;;;5092452;28;20104;-72
2024/03/23 03:53:15;;;;;;;25.10;15.02;;;14.80;88.00;;;;;;5092551;28;20032;-71
2024/03/23 03:55:40;;;;;;;20.60;13.40;;;14.80;88.20;;;;;;5092340;28;20354;-70
2024/03/23 03:58:06;;;;;;;21.95;15.00;;;14.80;88.10;;;;;;5074394;28;20484;-70
2024/03/23 04:00:32;;;;;;;26.60;17.17;;;14.80;88.30;;;;;;5092283;28;20034;-71
2024/03/23 04:02:57;;;;;;;23.77;15.82;;;14.80;88.00;;;;;;5092340;28;20110;-71
2024/03/23 04:05:23;;;;;;;25.13;15.30;;;14.80;88.10;;;;;;5092432;28;20029;-71
2024/03/23 04:07:49;;;;;;;22.25;14.35;;;14.80;88.20;;;;;;5092583;28;20124;-71
2024/03/23 04:10:15;;;;;;;20.40;13.32;;;14.90;88.70;;;;;;5092146;28;20068;-71
2024/03/23 04:12:44;;;;;;;18.35;12.73;;;14.90;88.20;;;;;;5092309;28;20402;-71
2024/03/23 04:15:10;;;;;;;19.33;13.95;;;15.00;88.10;;;;;;5074560;28;20060;-71
2024/03/23 04:17:36;;;;;;;18.35;14.38;;;15.00;88.00;;;;;;5096531;22;20048;-72
2024/03/23 04:20:03;;;;;;;17.85;13.07;;;15.00;87.90;;;;;;5072272;28;20045;-72
2024/03/23 04:22:29;;;;;;;21.52;13.70;;;14.90;87.80;;;;;;5072353;28;20381;-71
2024/03/23 04:24:57;;;;;;;19.80;13.90;;;15.00;88.10;;;;;;5071994;28;20048;-71
2024/03/23 04:27:23;;;;;;;17.88;13.48;;;15.00;87.90;;;;;;5072105;28;20032;-71
2024/03/23 04:29:50;;;;;;;19.90;13.43;;;15.10;87.90;;;;;;5071949;28;20039;-70
2024/03/23 04:32:17;;;;;;;18.08;12.95;;;15.10;87.90;;;;;;5053717;28;20060;-71
2024/03/23 04:34:43;;;;;;;17.65;12.93;;;15.00;87.50;;;;;;5071952;28;20024;-71
2024/03/23 04:37:09;;;;;;;20.70;13.63;;;15.00;87.70;;;;;;5071871;28;20127;-71
2024/03/23 04:39:36;;;;;;;16.70;13.25;;;15.00;87.70;;;;;;5072081;28;20104;-71
2024/03/23 04:42:02;;;;;;;17.42;13.23;;;15.00;87.80;;;;;;5071835;28;20040;-71
2024/03/23 04:44:28;;;;;;;21.65;13.77;;;14.90;87.70;;;;;;5071703;28;20044;-71
2024/03/23 04:46:54;;;;;;;20.00;13.80;;;14.90;87.80;;;;;;5073964;28;20024;-72
2024/03/23 04:49:20;;;;;;;17.67;13.43;;;14.90;87.90;;;;;;5075312;28;20468;-72
2024/03/23 04:51:46;;;;;;;19.35;13.43;;;14.90;88.00;;;;;;5057542;28;20095;-72
2024/03/23 04:54:12;;;;;;;19.55;13.35;;;14.90;87.90;;;;;;5075593;28;20028;-71
2024/03/23 04:56:38;;;;;;;20.27;13.90;;;15.00;88.10;;;;;;5075547;28;20051;-71
2024/03/23 04:59:04;;;;;;;19.10;13.27;;;14.90;88.00;;;;;;5075238;28;20024;-72
2024/03/23 05:01:31;;;;;;;20.52;12.95;;;14.90;88.10;;;;;;5075480;28;20029;-71
2024/03/23 05:03:57;;;;;;;21.33;13.20;;;14.90;88.20;;;;;;5075427;28;20484;-71
2024/03/23 05:06:26;;;;;;;19.13;13.05;;;14.90;88.20;;;;;;5075273;28;20033;-72
2024/03/23 05:08:52;;;;;;;19.23;13.70;;;14.80;88.10;;;;;;5075134;28;20416;-71
2024/03/23 05:11:18;;;;;;;18.95;13.38;;;14.80;88.40;;;;;;5075118;28;20033;-70
2024/03/23 05:13:45;;;;;;;20.10;14.13;;;14.80;88.40;;;;;;5075170;28;20032;-71
2024/03/23 05:16:10;;;;;;;18.58;13.15;;;14.80;88.50;;;;;;5075221;28;20067;-71
2024/03/23 05:18:36;;;;;;;20.40;14.25;;;14.80;88.50;;;;;;5074693;28;20045;-71
2024/03/23 05:21:02;;;;;;;20.08;13.32;;;14.80;88.40;;;;;;5075125;28;20037;-72
2024/03/23 05:23:31;;;;;;;17.77;13.75;;;14.90;88.40;;;;;;5074707;28;20104;-72
2024/03/23 05:25:56;;;;;;;22.13;13.88;;;14.90;88.20;;;;;;5056830;28;20033;-71
2024/03/23 05:28:22;;;;;;;23.63;14.05;;;15.00;88.10;;;;;;5074832;28;20098;-71
2024/03/23 05:30:56;;;;;;;20.58;13.90;;;15.10;88.10;;;;;;5074655;28;20037;-71
2024/03/23 05:33:22;;;;;;;18.35;12.85;;;15.10;87.80;;;;;;5074674;28;20024;-72
2024/03/23 05:36:00;;;;;;;19.83;13.13;;;15.10;87.80;;;;;;5075037;28;20040;-72
2024/03/23 05:38:26;;;;;;;17.15;12.20;;;15.10;87.90;;;;;;5074648;28;20040;-71
2024/03/23 05:40:55;;;;;;;19.00;12.48;;;15.10;87.70;;;;;;5074970;28;20029;-72
2024/03/23 05:43:22;;;;;;;21.17;13.05;;;15.20;87.60;;;;;;5074415;28;20060;-72
2024/03/23 05:45:58;;;;;;;18.48;13.52;;;15.20;87.60;;;;;;5074711;28;20033;-72
2024/03/23 05:48:24;;;;;;;22.27;13.95;;;15.20;87.70;;;;;;5074385;28;20116;-72
2024/03/23 05:50:51;;;;;;;21.55;14.00;;;15.20;88.10;;;;;;5074557;28;20066;-71
2024/03/23 05:53:17;;;;;;;19.90;12.15;;;15.30;87.60;;;;;;5074309;28;20555;-72
2024/03/23 05:55:43;;;;;;;20.58;13.18;;;15.40;87.40;;;;;;5074126;28;20388;-72
2024/03/23 05:58:10;;;;;;;17.38;12.05;;;15.40;87.20;;;;;;5073743;28;20036;-71
2024/03/23 06:00:35;;;;;;;17.52;12.27;;;15.50;87.00;;;;;;5074220;28;20029;-72
2024/03/23 06:03:01;;;;;;;19.83;12.98;;;15.50;86.40;;;;;;5072856;28;20028;-71
2024/03/23 06:05:27;;;;;;;22.33;14.10;;;15.50;86.50;;;;;;5074009;28;20040;-70
2024/03/23 06:07:53;;;;;;;23.45;14.27;;;15.50;86.60;;;;;;5074023;28;20410;-72
2024/03/23 06:10:18;;;;;;;19.13;12.98;;;15.60;86.30;;;;;;5074132;28;20562;-71
2024/03/23 06:12:46;;;;;;;15.60;12.65;;;15.60;86.30;;;;;;5074027;28;20028;-71
2024/03/23 06:15:12;;;;;;;18.63;12.85;;;15.70;86.30;;;;;;5074455;28;20513;-70
2024/03/23 06:17:38;;;;;;;21.40;12.60;;;15.70;86.00;;;;;;5073639;28;20137;-71
2024/03/23 06:20:08;;;;;;;20.90;12.45;;;15.70;85.90;;;;;;5074002;28;20057;-71
2024/03/23 06:22:33;;;;;;;18.25;12.57;;;15.80;85.80;;;;;;5073920;28;20392;-72
2024/03/23 06:24:59;;;;;;;21.20;13.13;;;15.90;86.20;;;;;;5073809;28;20029;-71
2024/03/23 06:27:25;;;;;;;16.55;12.52;;;15.90;85.20;;;;;;5073795;28;20107;-72
2024/03/23 06:29:51;;;;;;;20.65;14.52;;;15.90;85.30;;;;;;5055553;28;20051;-71
2024/03/23 06:32:17;;;;;;;18.58;13.88;;;15.90;85.50;;;;;;5073634;28;20416;-72
2024/03/23 06:34:43;;;;;;;20.35;13.63;;;16.00;85.30;;;;;;5073699;28;20530;-72
2024/03/23 06:37:09;;;;;;;17.33;12.88;;;16.10;85.20;;;;;;5073546;28;20148;-71
2024/03/23 06:39:36;;;;;;;19.33;13.20;;;16.10;84.90;;;;;;5073639;28;20503;-72
2024/03/23 06:42:03;;;;;;;19.38;13.23;;;16.20;84.50;;;;;;5055822;28;20086;-71
2024/03/23 06:44:29;;;;;;;17.77;13.35;;;16.20;84.20;;;;;;5073473;28;20491;-71
2024/03/23 06:46:55;;;;;;;20.67;13.90;;;16.30;84.10;;;;;;5073623;28;20032;-71
2024/03/23 06:49:20;;;;;;;18.35;13.48;;;16.40;84.00;;;;;;5055411;28;20090;-71
2024/03/23 06:51:46;;;;;;;20.30;14.32;;;16.40;83.70;;;;;;5055245;28;20549;-71
2024/03/23 06:54:12;;;;;;;19.02;14.52;;;16.50;83.50;;;;;;5055246;28;20027;-72
2024/03/23 06:56:38;;;;;;;20.35;15.68;;;16.50;83.60;;;;;;5073188;28;20043;-71
2024/03/23 06:59:03;;;;;;;20.42;15.02;;;16.50;83.40;;;;;;5073233;28;20506;-71
2024/03/23 07:01:29;;;;;;;19.52;15.48;;;16.60;83.40;;;;;;5055232;28;20043;-72
2024/03/23 07:03:55;;;;;;;22.60;14.35;;;16.50;83.20;;;;;;5073133;28;20484;-72
2024/03/23 07:06:21;;;;;;;20.67;14.80;;;16.50;83.20;;;;;;5072793;28;20472;-73
2024/03/23 07:08:47;;;;;;;22.52;16.15;;;16.50;83.20;;;;;;5072208;28;20094;-72
2024/03/23 07:11:18;;;;;;;20.63;14.75;;;16.60;83.10;;;;;;5073738;28;20033;-74
2024/03/23 07:13:43;;;;;;;19.38;13.77;;;16.70;82.70;;;;;;5073058;28;20123;-73
2024/03/23 07:16:09;;;;;;;21.00;15.55;;;16.80;82.40;;;;;;5072912;28;20032;-74
2024/03/23 07:18:35;;;;;;;19.48;13.93;;;16.90;82.20;;;;;;5071824;28;20086;-73
2024/03/23 07:21:00;;;;;;;22.20;14.40;;;17.00;82.00;;;;;;5071979;28;20029;-71
2024/03/23 07:23:26;;;;;;;21.52;14.35;;;17.20;81.90;;;;;;5071989;28;20150;-73
2024/03/23 07:26:05;;;;;;;22.52;14.50;;;17.30;81.60;;;;;;5053941;28;20063;-72
2024/03/23 07:28:35;;;;;;;19.33;14.65;;;17.40;81.90;;;;;;5072102;28;20431;-71
2024/03/23 07:31:09;;;;;;;23.65;14.45;;;17.40;81.40;;;;;;5071847;28;20024;-72
2024/03/23 07:33:36;;;;;;;18.25;14.30;;;17.40;81.30;;;;;;5071739;28;20033;-71
2024/03/23 07:36:03;;;;;;;25.38;16.88;;;17.40;81.30;;;;;;5053706;28;20333;-73
2024/03/23 07:38:29;;;;;;;21.20;14.73;;;17.40;81.50;;;;;;5053817;28;20036;-72
2024/03/23 07:41:04;;;;;;;21.10;15.40;;;17.40;81.30;;;;;;5070377;28;20060;-72
2024/03/23 07:43:29;;;;;;;20.85;16.20;;;17.40;81.30;;;;;;5071366;28;20029;-73
2024/03/23 07:45:55;;;;;;;20.42;14.73;;;17.40;81.30;;;;;;5071656;28;20541;-72
2024/03/23 07:48:24;;;;;;;22.05;15.45;;;17.40;81.50;;;;;;5071280;28;20036;-72
2024/03/23 07:50:58;;;;;;;20.73;14.88;;;17.50;81.40;;;;;;5071356;28;20034;-72
2024/03/23 07:53:24;;;;;;;21.67;15.18;;;17.80;81.20;;;;;;5071392;28;20028;-72
2024/03/23 07:55:58;;;;;;;23.98;15.15;;;18.00;80.90;;;;;;5071586;28;20035;-71
2024/03/23 07:58:24;;;;;;;22.45;15.25;;;18.20;80.60;;;;;;5071166;28;20400;-74
2024/03/23 08:00:50;;;;;;;19.48;15.60;;;18.40;80.50;;;;;;5071573;28;20076;-73
2024/03/23 08:03:16;;;;;;;23.45;15.88;;;18.60;80.20;;;;;;5071443;28;20423;-73
2024/03/23 08:05:41;;;;;;;18.50;13.70;;;18.70;79.90;;;;;;5053442;28;20060;-73
2024/03/23 08:08:07;;;;;;;16.88;13.15;;;18.90;79.90;;;;;;5071622;28;20037;-72
2024/03/23 08:10:32;;;;;;;19.17;14.00;;;19.00;79.40;;;;;;5071222;28;20079;-72
2024/03/23 08:12:58;;;;;;;16.73;13.52;;;19.20;79.20;;;;;;5053510;28;20041;-72
2024/03/23 08:15:24;;;;;;;19.23;15.00;;;19.30;79.00;;;;;;5071344;28;20507;-73
2024/03/23 08:17:50;;;;;;;18.83;15.48;;;19.40;79.20;;;;;;5029417;28;1191843;-72
2024/03/23 08:20:16;;;;;;;21.85;17.38;;;19.40;79.40;;;;;;5073414;28;20036;-71
2024/03/23 08:22:41;;;;;;;22.88;16.73;;;19.20;79.60;;;;;;5058155;28;20037;-72
2024/03/23 08:25:07;;;;;;;18.05;15.25;;;19.10;80.10;;;;;;5076105;28;20032;-71
2024/03/23 08:27:33;;;;;;;19.55;14.95;;;19.10;80.40;;;;;;5075737;28;20107;-73
2024/03/23 08:29:58;;;;;;;18.23;15.38;;;19.10;80.70;;;;;;5076063;28;20035;-72
2024/03/23 08:32:24;;;;;;;20.52;15.25;;;19.20;80.40;;;;;;5075775;28;20468;-73
2024/03/23 08:34:50;;;;;;;18.60;14.48;;;19.30;80.20;;;;;;5075715;28;20116;-72
2024/03/23 08:37:15;;;;;;;15.57;11.90;;;19.40;80.10;;;;;;5075513;28;20406;-72
2024/03/23 08:39:43;;;;;;;14.00;10.38;;;19.40;80.00;;;;;;5075622;28;20040;-71
2024/03/23 08:42:09;;;;;;;12.18;9.93;;;19.30;80.20;;;;;;5076346;28;20115;-73
2024/03/23 08:44:35;;;;;;;12.57;10.05;;;19.20;80.80;;;;;;5075997;28;20056;-72
2024/03/23 08:47:01;;;;;;;14.63;10.50;;;19.00;80.90;;;;;;5076084;28;20098;-74
2024/03/23 08:49:27;;;;;;;12.05;9.35;;;18.90;81.10;;;;;;5057788;28;20423;-71
2024/03/23 08:51:54;;;;;;;13.63;10.25;;;18.80;81.30;;;;;;5075572;28;20070;-73
2024/03/23 08:54:20;;;;;;;14.82;9.82;;;18.70;81.50;;;;;;5075482;28;20025;-72
2024/03/23 08:56:46;;;;;;;15.57;10.88;;;18.70;81.80;;;;;;5075066;28;20056;-72
2024/03/23 08:59:11;;;;;;;17.48;11.70;;;18.70;81.80;;;;;;5075435;28;20361;-74
2024/03/23 09:01:38;;;;;;;12.68;8.65;;;18.70;81.40;;;;;;5075125;28;20033;-73
2024/03/23 09:04:04;;;;;;;14.10;8.10;;;18.60;81.40;;;;;;5075219;28;20040;-72
2024/03/23 09:06:29;;;;;;;11.27;8.27;;;18.60;81.40;;;;;;5075033;28;20094;-72
2024/03/23 09:08:55;;;;;;;11.85;7.93;;;18.60;81.50;;;;;;5074935;28;20107;-73
2024/03/23 09:11:21;;;;;;;13.57;8.88;;;18.60;81.80;;;;;;5075121;28;20034;-74
2024/03/23 09:13:46;;;;;;;13.48;9.10;;;18.50;81.80;;;;;;5075192;28;20061;-72
2024/03/23 09:16:12;;;;;;;13.73;10.48;;;18.50;81.90;;;;;;5056734;28;20024;-71
2024/03/23 09:18:38;;;;;;;11.95;9.25;;;18.60;82.00;;;;;;5074969;28;20044;-73
2024/03/23 09:21:11;;;;;;;11.63;7.93;;;18.60;81.90;;;;;;5074591;28;20534;-73
2024/03/23 09:23:37;;;;;;;10.65;7.15;;;18.70;81.90;;;;;;5074764;28;20112;-72
2024/03/23 09:26:03;;;;;;;10.07;7.32;;;18.70;81.80;;;;;;5074506;28;20116;-72
2024/03/23 09:28:30;;;;;;;10.98;7.80;;;18.70;81.70;;;;;;5074465;28;20032;-73
2024/03/23 09:31:01;;;;;;;10.60;7.75;;;18.70;81.40;;;;;;5056540;28;20127;-73
2024/03/23 09:33:29;;;;;;;15.80;10.30;;;18.70;81.10;;;;;;5074144;28;20025;-72
2024/03/23 09:35:56;;;;;;;9.27;6.78;;;18.70;80.50;;;;;;5073952;28;20060;-73
2024/03/23 09:38:22;;;;;;;9.52;6.30;;;18.80;80.80;;;;;;5074250;28;20037;-68
2024/03/23 09:40:53;;;;;;;12.50;6.80;;;18.80;80.40;;;;;;5074387;28;20028;-73
2024/03/23 09:43:18;;;;;;;9.07;5.88;;;18.90;80.40;;;;;;5074320;28;20419;-74
2024/03/23 09:45:45;;;;;;;9.63;5.60;;;19.10;80.00;;;;;;5074338;28;20040;-73
2024/03/23 09:48:11;;;;;;;11.05;6.07;;;19.20;79.60;;;;;;5074042;28;20464;-73
2024/03/23 09:50:41;;;;;;;11.82;6.80;;;19.30;79.10;;;;;;5073752;28;20032;-72
2024/03/23 09:53:07;;;;;;;11.50;6.70;;;19.40;79.20;;;;;;5074114;28;20033;-73
2024/03/23 09:55:35;;;;;;;8.52;4.40;;;19.40;78.60;;;;;;5074112;28;20036;-73
2024/03/23 09:58:01;;;;;;;7.03;4.07;;;19.40;77.60;;;;;;5073825;28;20517;-73
2024/03/23 10:00:27;;;;;;;7.35;4.13;;;19.50;77.10;;;;;;5073665;28;20158;-73
2024/03/23 10:02:55;;;;;;;13.05;4.03;;;19.60;77.20;;;;;;5055983;28;20063;-73
2024/03/23 10:05:22;;;;;;;5.63;3.50;;;19.60;76.80;;;;;;5073963;28;20060;-72
2024/03/23 10:07:50;;;;;;;7.88;4.07;;;19.70;76.50;;;;;;5073809;28;20021;-74
2024/03/23 10:10:16;;;;;;;8.32;3.75;;;19.80;76.10;;;;;;5074911;28;20041;-73
2024/03/23 10:12:52;;;;;;;9.05;3.80;;;19.90;75.60;;;;;;5074984;28;20040;-74
2024/03/23 10:15:21;;;;;;;9.75;3.60;;;20.00;75.40;;;;;;5074119;28;20119;-73
2024/03/23 10:17:48;;;;;;;8.13;3.20;;;20.10;75.60;;;;;;5073412;28;20408;-74
2024/03/23 10:20:18;;;;;;;9.63;4.35;;;20.10;74.50;;;;;;5073533;28;20086;-73
2024/03/23 10:22:44;;;;;;;7.90;3.30;;;20.30;74.30;;;;;;5073373;28;20048;-73
2024/03/23 10:25:11;;;;;;;7.57;3.60;;;20.30;73.70;;;;;;5073661;28;20028;-73
2024/03/23 10:27:36;;;;;;;5.88;2.88;;;20.40;73.80;;;;;;5055576;28;20028;-73
2024/03/23 10:30:15;;;;;;;6.13;2.50;;;20.40;73.60;;;;;;5073470;28;20036;-73
2024/03/23 10:32:41;;;;;;;6.75;3.20;;;20.50;73.80;;;;;;5073341;28;20506;-74
2024/03/23 10:35:22;;;;;;;6.03;2.70;;;20.40;73.20;;;;;;5073381;28;20036;-72
2024/03/23 10:37:51;;;;;;;6.65;2.40;;;20.50;72.80;;;;;;5055062;28;20055;-73
2024/03/23 10:40:18;;;;;;;6.32;2.90;;;20.50;72.90;;;;;;5072996;28;20445;-76
2024/03/23 10:42:44;;;;;;;5.28;3.05;;;20.50;73.00;;;;;;5072974;28;20535;-72
2024/03/23 10:45:10;;;;;;;5.43;2.70;;;20.50;72.80;;;;;;5073001;28;20337;-73
2024/03/23 10:47:37;;;;;;;6.55;3.10;;;20.50;72.60;;;;;;5072867;28;20082;-73
2024/03/23 10:50:06;;;;;;;7.53;3.17;;;20.60;72.40;;;;;;5073057;28;20029;-73
2024/03/23 10:52:35;;;;;;;5.10;2.80;;;20.60;72.40;;;;;;5072920;28;20127;-73
2024/03/23 10:55:06;;;;;;;4.82;2.30;;;20.70;72.00;;;;;;5072694;28;20032;-72
2024/03/23 10:57:42;;;;;;;7.30;2.00;;;20.70;71.60;;;;;;5072922;28;20050;-74
2024/03/23 11:00:10;;;;;;;4.70;2.08;;;20.80;71.80;;;;;;5073113;28;20379;-74
2024/03/23 11:02:36;;;;;;;6.32;1.90;;;20.90;71.10;;;;;;5054886;28;20078;-75
2024/03/23 11:05:02;;;;;;;6.25;2.38;;;20.90;70.30;;;;;;5072746;28;20064;-73
2024/03/23 11:07:28;;;;;;;4.40;2.03;;;21.00;69.60;;;;;;5072887;28;20029;-73
2024/03/23 11:09:54;;;;;;;5.38;2.10;;;21.00;69.70;;;;;;5072641;28;20035;-72
2024/03/23 11:12:23;;;;;;;5.00;2.50;;;21.10;69.20;;;;;;5072549;28;20384;-74
2024/03/23 11:14:50;;;;;;;4.30;1.75;;;21.20;69.00;;;;;;5072341;28;20033;-72
2024/03/23 11:17:20;;;;;;;5.22;1.38;;;21.30;68.10;;;;;;5072148;28;20044;-72
2024/03/23 11:20:00;;;;;;;4.57;1.90;;;21.20;67.30;;;;;;5072605;28;20068;-73
2024/03/23 11:22:40;;;;;;;6.38;1.70;;;21.30;67.20;;;;;;5072511;28;20385;-74
2024/03/23 11:25:28;;;;;;;4.95;1.95;;;21.30;66.70;;;;;;5072368;28;20024;-72
2024/03/23 11:27:56;;;;;;;3.60;1.40;;;21.40;66.20;;;;;;5072158;28;20035;-74
2024/03/23 11:30:26;;;;;;;5.28;1.63;;;21.40;65.20;;;;;;5072377;28;20136;-72
2024/03/23 11:32:53;;;;;;;3.80;1.50;;;21.40;65.10;;;;;;5072268;28;20024;-73
2024/03/23 11:35:29;;;;;;;4.47;1.58;;;21.50;64.00;;;;;;5072412;28;20039;-74
2024/03/23 11:38:14;;;;;;;4.57;1.40;;;21.50;63.80;;;;;;5072138;28;20044;-74
2024/03/23 11:40:45;;;;;;;4.10;1.80;;;21.60;62.60;;;;;;5072416;28;20105;-73
2024/03/23 11:43:19;;;;;;;4.47;1.40;;;21.60;63.10;;;;;;5072266;28;20090;-74
2024/03/23 11:45:54;;;;;;;5.47;2.00;;;21.60;62.50;;;;;;5072270;28;20476;-74
2024/03/23 11:48:21;;;;;;;5.85;1.50;;;21.70;62.30;;;;;;5072219;28;20045;-72
2024/03/23 11:50:48;;;;;;;2.53;1.30;;;21.80;62.30;;;;;;5072229;28;20029;-71
2024/03/23 11:53:19;;;;;;;2.63;1.20;;;21.80;62.40;;;;;;5072166;28;20132;-73
2024/03/23 11:55:49;;;;;;;2.70;1.17;;;21.80;62.60;;;;;;5071605;28;20064;-73
2024/03/23 11:58:17;;;;;;;3.50;1.42;;;21.80;63.30;;;;;;5072176;28;20109;-74
2024/03/23 12:00:59;;;;;;;4.68;1.40;;;21.90;63.40;;;;;;5072398;28;20032;-74
2024/03/23 12:03:26;;;;;;;6.00;2.00;;;21.90;63.20;;;;;;5072178;28;20063;-74
2024/03/23 12:05:58;;;;;;;3.50;1.20;;;21.90;62.30;;;;;;5054065;28;20033;-73
2024/03/23 12:08:29;;;;;;;2.97;1.40;;;21.90;61.80;;;;;;5072132;28;20392;-73
2024/03/23 12:11:15;;;;;;;4.55;1.65;;;21.80;61.80;;;;;;5072404;28;20096;-73
2024/03/23 12:13:43;;;;;;;3.15;1.45;;;21.80;61.30;;;;;;5072184;28;20036;-73
2024/03/23 12:16:13;;;;;;;4.90;1.40;;;21.80;62.00;;;;;;5071683;28;20032;-74
2024/03/23 12:18:41;;;;;;;4.10;1.48;;;21.80;62.30;;;;;;5071594;28;20048;-74
2024/03/23 12:21:07;;;;;;;6.57;1.40;;;21.80;62.50;;;;;;5071729;28;20082;-74
2024/03/23 12:23:33;;;;;;;2.95;1.50;;;21.80;62.60;;;;;;5071696;28;20481;-73
2024/03/23 12:25:59;;;;;;;4.80;1.30;;;21.80;62.80;;;;;;5071347;28;20139;-73
2024/03/23 12:28:25;;;;;;;2.65;1.05;;;21.80;63.20;;;;;;5053556;28;20185;-73
2024/03/23 12:30:54;;;;;;;3.42;1.40;;;21.80;63.60;;;;;;5072058;28;20029;-72
2024/03/23 12:33:21;;;;;;;2.85;1.50;;;21.50;64.00;;;;;;5071712;28;20060;-73